createdAt,value
2023-11-22T00:00:10.561Z,36.00
2023-11-22T00:02:41.961Z,37.80
2023-11-22T00:05:14.381Z,36.35
2023-11-22T00:07:44.826Z,39.30
2023-11-22T00:10:15.443Z,36.53
2023-11-22T00:12:45.897Z,38.42
2023-11-22T00:15:21.863Z,38.53
2023-11-22T00:17:52.229Z,37.30
2023-11-22T00:20:24.284Z,38.22
2023-11-22T00:22:55.149Z,40.90
2023-11-22T00:25:25.634Z,45.45
2023-11-22T00:27:56.235Z,38.58
2023-11-22T00:32:56.976Z,41.47
2023-11-22T00:35:27.498Z,38.40
2023-11-22T00:40:27.855Z,57.43
2023-11-22T00:45:27.996Z,43.22
2023-11-22T00:47:58.489Z,47.15
2023-11-22T00:52:58.724Z,53.38
2023-11-22T00:55:30.121Z,49.15
2023-11-22T00:58:06.803Z,52.42
2023-11-22T01:00:37.217Z,47.67
2023-11-22T01:03:08.428Z,45.88
2023-11-22T01:05:39.006Z,49.92
2023-11-22T01:10:39.439Z,50.30
2023-11-22T01:13:09.987Z,49.15
2023-11-22T01:18:10.082Z,45.95
2023-11-22T01:20:40.609Z,53.58
2023-11-22T01:23:10.926Z,45.08
2023-11-22T01:25:41.426Z,45.53
2023-11-22T01:28:14.251Z,43.95
2023-11-22T01:30:44.622Z,43.85
2023-11-22T01:33:15.436Z,50.50
2023-11-22T01:35:46.209Z,46.83
2023-11-22T01:38:16.506Z,55.33
2023-11-22T01:40:50.891Z,54.28
2023-11-22T01:43:27.234Z,60.97
2023-11-22T01:45:59.387Z,53.92
2023-11-22T01:48:30.754Z,55.60
2023-11-22T01:51:01.324Z,59.22
2023-11-22T01:56:01.957Z,53.70
2023-11-22T01:58:32.914Z,58.00
2023-11-22T02:01:05.451Z,60.10
2023-11-22T02:03:36.089Z,58.15
2023-11-22T02:06:08.416Z,53.45
2023-11-22T02:08:39.034Z,61.95
2023-11-22T02:11:09.385Z,55.65
2023-11-22T02:13:39.791Z,60.85
2023-11-22T02:16:10.212Z,58.03
2023-11-22T02:21:11.476Z,75.53
2023-11-22T02:23:42.183Z,77.15
2023-11-22T02:26:12.711Z,85.47
2023-11-22T02:31:13.077Z,88.07
2023-11-22T02:36:16.373Z,86.45
2023-11-22T02:38:49.136Z,87.63
2023-11-22T02:41:19.541Z,96.63
2023-11-22T02:43:50.096Z,77.85
2023-11-22T02:46:20.889Z,82.35
2023-11-22T02:48:51.446Z,81.63
2023-11-22T02:51:21.809Z,80.15
2023-11-22T02:53:53.184Z,83.00
2023-11-22T02:56:24.300Z,95.22
2023-11-22T02:58:54.869Z,84.57
2023-11-22T03:03:55.150Z,78.97
2023-11-22T03:06:25.721Z,75.75
2023-11-22T03:11:28.514Z,72.22
2023-11-22T03:13:59.050Z,80.65
2023-11-22T03:16:30.027Z,87.25
2023-11-22T03:19:01.340Z,81.25
2023-11-22T03:21:31.933Z,105.97
2023-11-22T03:24:03.403Z,109.57
2023-11-22T03:26:34.421Z,87.90
2023-11-22T03:29:05.009Z,101.40
2023-11-22T03:31:36.389Z,104.75
2023-11-22T03:34:08.344Z,102.70
2023-11-22T03:36:38.847Z,99.47
2023-11-22T03:41:40.524Z,87.18
2023-11-22T03:44:12.072Z,92.70
2023-11-22T03:46:43.545Z,90.40
2023-11-22T03:49:14.065Z,91.45
2023-11-22T03:51:46.718Z,89.90
2023-11-22T03:54:17.398Z,84.82
2023-11-22T03:56:48.096Z,87.15
2023-11-22T03:59:18.686Z,86.57
2023-11-22T04:01:49.628Z,92.78
2023-11-22T04:04:20.220Z,83.93
2023-11-22T04:06:52.370Z,87.00
2023-11-22T04:09:24.159Z,87.85
2023-11-22T04:11:55.145Z,90.55
2023-11-22T04:14:25.649Z,87.07
2023-11-22T04:16:56.903Z,88.60
2023-11-22T04:19:27.596Z,65.07
2023-11-22T04:21:59.124Z,69.00
2023-11-22T04:24:29.884Z,65.60
2023-11-22T04:27:00.346Z,70.05
2023-11-22T04:29:30.736Z,72.35
2023-11-22T04:32:02.320Z,68.22
2023-11-22T04:34:32.685Z,69.45
2023-11-22T04:37:03.710Z,59.97
2023-11-22T04:39:34.397Z,63.25
2023-11-22T04:42:05.270Z,70.30
2023-11-22T04:44:35.930Z,69.00
2023-11-22T04:47:07.836Z,51.17
2023-11-22T04:49:38.107Z,58.28
2023-11-22T04:54:41.050Z,51.88
2023-11-22T04:57:11.603Z,61.20
2023-11-22T05:02:46.439Z,52.90
2023-11-22T05:05:17.425Z,65.00
2023-11-22T05:07:48.047Z,65.80
2023-11-22T05:10:20.231Z,56.95
2023-11-22T05:12:50.799Z,57.05
2023-11-22T05:15:21.064Z,69.25
2023-11-22T05:20:21.829Z,59.90
2023-11-22T05:22:53.492Z,65.68
2023-11-22T05:25:23.887Z,62.78
2023-11-22T05:27:54.460Z,66.35
2023-11-22T05:30:25.166Z,68.75
2023-11-22T05:32:55.853Z,71.20
2023-11-22T05:35:26.408Z,64.95
2023-11-22T05:38:00.448Z,67.38
2023-11-22T05:40:30.921Z,67.05
2023-11-22T05:43:01.278Z,57.10
2023-11-22T05:45:31.680Z,57.05
2023-11-22T05:48:02.171Z,54.85
2023-11-22T05:50:32.590Z,44.00
2023-11-22T05:53:03.362Z,40.13
2023-11-22T05:55:34.368Z,40.58
2023-11-22T05:58:04.674Z,40.08
2023-11-22T06:00:35.001Z,38.97
2023-11-22T06:03:05.325Z,32.97
2023-11-22T06:05:36.007Z,40.53
2023-11-22T06:08:06.570Z,41.80
2023-11-22T06:10:39.342Z,35.17
2023-11-22T06:13:10.063Z,33.25
2023-11-22T06:15:44.249Z,26.75
2023-11-22T06:18:17.618Z,33.03
2023-11-22T06:20:48.755Z,28.98
2023-11-22T06:23:19.413Z,46.70
2023-11-22T06:25:50.804Z,44.97
2023-11-22T06:28:21.287Z,33.67
2023-11-22T06:30:51.891Z,35.22
2023-11-22T06:33:26.640Z,30.27
2023-11-22T06:35:58.815Z,29.60
2023-11-22T06:38:29.118Z,28.80
2023-11-22T06:40:59.580Z,39.70
2023-11-22T06:43:29.821Z,31.63
2023-11-22T06:46:00.394Z,35.53
2023-11-22T06:48:31.058Z,31.33
2023-11-22T06:51:05.062Z,33.65
2023-11-22T06:53:35.394Z,28.38
2023-11-22T06:56:06.847Z,31.08
2023-11-22T06:58:38.057Z,33.03
2023-11-22T07:01:08.368Z,36.17
2023-11-22T07:03:39.724Z,29.67
2023-11-22T07:06:11.292Z,33.35
2023-11-22T07:08:41.894Z,38.05
2023-11-22T07:11:13.511Z,40.05
2023-11-22T07:13:44.730Z,34.90
2023-11-22T07:16:15.626Z,32.42
2023-11-22T07:18:46.039Z,30.58
2023-11-22T07:21:17.386Z,25.13
2023-11-22T07:23:50.574Z,32.50
2023-11-22T07:26:22.811Z,31.00
2023-11-22T07:28:53.085Z,27.35
2023-11-22T07:31:24.321Z,32.67
2023-11-22T07:33:54.722Z,37.95
2023-11-22T07:36:25.116Z,37.22
2023-11-22T07:38:56.975Z,28.20
2023-11-22T07:41:27.329Z,27.95
2023-11-22T07:43:59.106Z,25.98
2023-11-22T07:46:34.948Z,26.77
2023-11-22T07:49:05.681Z,29.30
2023-11-22T07:51:36.015Z,34.33
2023-11-22T07:54:06.805Z,35.97
2023-11-22T07:56:37.180Z,27.90
2023-11-22T07:59:08.101Z,30.35
2023-11-22T08:01:38.466Z,30.63
2023-11-22T08:04:09.029Z,32.17
2023-11-22T08:06:40.279Z,39.88
2023-11-22T08:09:13.138Z,31.13
2023-11-22T08:11:44.249Z,31.25
2023-11-22T08:14:17.792Z,36.38
2023-11-22T08:16:48.979Z,29.65
2023-11-22T08:19:23.633Z,32.50
2023-11-22T08:21:54.385Z,31.23
2023-11-22T08:24:25.495Z,26.85
2023-11-22T08:26:57.844Z,22.77
2023-11-22T08:29:28.234Z,21.85
2023-11-22T08:31:58.568Z,24.70
2023-11-22T08:34:28.861Z,24.42
2023-11-22T08:37:00.191Z,26.20
2023-11-22T08:39:31.019Z,27.48
2023-11-22T08:42:01.693Z,27.20
2023-11-22T08:44:32.037Z,22.63
2023-11-22T08:47:02.436Z,21.65
2023-11-22T08:49:32.952Z,27.50
2023-11-22T08:52:04.287Z,26.98
2023-11-22T08:54:36.211Z,28.10
2023-11-22T08:57:09.201Z,27.25
2023-11-22T08:59:41.734Z,27.33
2023-11-22T09:02:21.663Z,24.27
2023-11-22T09:04:52.837Z,26.75
2023-11-22T09:07:25.377Z,32.75
2023-11-22T09:09:56.000Z,24.15
2023-11-22T09:12:27.632Z,22.60
2023-11-22T09:14:58.713Z,25.30
2023-11-22T09:17:30.467Z,27.40
2023-11-22T09:20:01.842Z,26.45
2023-11-22T09:22:32.301Z,24.70
2023-11-22T09:25:03.130Z,30.55
2023-11-22T09:27:33.614Z,30.00
2023-11-22T09:30:04.311Z,27.38
2023-11-22T09:32:35.133Z,27.17
2023-11-22T09:35:06.651Z,23.40
2023-11-22T09:37:38.775Z,25.80
2023-11-22T09:40:12.330Z,29.15
2023-11-22T09:42:43.725Z,40.45
2023-11-22T09:45:14.402Z,26.05
2023-11-22T09:47:44.895Z,29.27
2023-11-22T09:50:45.636Z,45.63
2023-11-22T09:53:23.633Z,32.35
2023-11-22T09:55:54.201Z,31.02
2023-11-22T09:58:24.590Z,42.72
2023-11-22T10:00:56.722Z,40.00
2023-11-22T10:03:30.074Z,39.72
2023-11-22T10:06:02.130Z,48.47
2023-11-22T10:08:39.066Z,44.63
2023-11-22T10:11:10.266Z,44.03
2023-11-22T10:13:40.524Z,37.13
2023-11-22T10:16:21.311Z,42.38
2023-11-22T10:18:53.835Z,34.55
2023-11-22T10:21:31.803Z,46.58
2023-11-22T10:24:06.102Z,40.60
2023-11-22T10:26:38.921Z,43.20
2023-11-22T10:29:09.231Z,39.65
2023-11-22T10:31:41.753Z,43.22
2023-11-22T10:34:14.313Z,41.47
2023-11-22T10:36:46.228Z,40.72
2023-11-22T10:39:19.622Z,45.50
2023-11-22T10:41:54.523Z,39.95
2023-11-22T10:44:26.109Z,40.72
2023-11-22T10:46:57.473Z,36.72
2023-11-22T10:49:27.844Z,43.83
2023-11-22T10:51:58.796Z,49.92
2023-11-22T10:54:29.833Z,42.63
2023-11-22T10:57:03.410Z,48.65
2023-11-22T10:59:35.559Z,52.35
2023-11-22T11:02:08.386Z,49.65
2023-11-22T11:04:48.970Z,45.20
2023-11-22T11:07:25.532Z,48.97
2023-11-22T11:09:57.365Z,46.88
2023-11-22T11:12:27.985Z,50.70
2023-11-22T11:14:58.647Z,52.15
2023-11-22T11:17:29.635Z,56.42
2023-11-22T11:20:01.990Z,56.50
2023-11-22T11:22:32.426Z,55.35
2023-11-22T11:25:09.065Z,63.90
2023-11-22T11:27:39.798Z,54.67
2023-11-22T11:30:46.375Z,59.78
2023-11-22T11:33:20.302Z,62.25
2023-11-22T11:35:55.673Z,73.57
2023-11-22T11:38:30.970Z,61.97
2023-11-22T11:41:17.790Z,68.32
2023-11-22T11:43:52.868Z,75.05
2023-11-22T11:58:25.006Z,63.63
2023-11-22T12:00:57.604Z,71.68
2023-11-22T12:03:28.442Z,68.45
2023-11-22T12:05:59.360Z,66.30
2023-11-22T12:08:36.444Z,74.93
2023-11-22T12:11:08.181Z,61.72
2023-11-22T12:13:42.185Z,65.45
2023-11-22T12:16:16.044Z,65.32
2023-11-22T12:18:49.342Z,80.80
2023-11-22T12:21:21.303Z,70.25
2023-11-22T12:23:52.509Z,67.28
2023-11-22T12:26:24.817Z,70.60
2023-11-22T12:29:01.428Z,63.97
2023-11-22T12:31:37.857Z,67.93
2023-11-22T12:34:11.932Z,76.72
2023-11-22T12:36:43.550Z,72.15
2023-11-22T12:39:23.604Z,68.72
2023-11-22T12:42:02.294Z,67.55
2023-11-22T12:44:56.067Z,79.82
2023-11-22T12:47:39.675Z,70.78
2023-11-22T12:50:11.940Z,71.72
2023-11-22T12:52:43.323Z,70.65
2023-11-22T12:55:13.732Z,76.22
2023-11-22T12:57:48.480Z,66.53
2023-11-22T13:00:19.311Z,72.25
2023-11-22T13:02:56.838Z,70.40
2023-11-22T13:05:37.892Z,68.53
2023-11-22T13:08:08.848Z,76.57
2023-11-22T13:10:39.155Z,61.03
2023-11-22T13:15:43.548Z,71.50
2023-11-22T13:18:14.926Z,74.00
2023-11-22T13:20:45.979Z,61.92
2023-11-22T13:23:17.325Z,66.75
2023-11-22T13:25:49.088Z,78.07
2023-11-22T13:28:19.569Z,70.05
2023-11-22T13:30:52.271Z,74.53
2023-11-22T13:33:24.445Z,72.80
2023-11-22T13:35:55.854Z,72.25
2023-11-22T13:38:27.147Z,72.28
2023-11-22T13:40:57.464Z,72.65
2023-11-22T13:45:59.173Z,67.18
2023-11-22T13:50:59.781Z,67.07
2023-11-22T13:53:35.191Z,73.93
2023-11-22T13:56:11.646Z,78.68
2023-11-22T13:58:42.188Z,66.20
2023-11-22T14:01:18.416Z,77.10
2023-11-22T14:03:48.854Z,65.60
2023-11-22T14:06:20.170Z,70.90
2023-11-22T14:08:50.595Z,55.95
2023-11-22T14:11:20.999Z,56.92
2023-11-22T14:16:22.232Z,61.28
2023-11-22T14:18:53.135Z,64.40
2023-11-22T14:21:23.433Z,61.53
2023-11-22T14:26:26.945Z,63.78
2023-11-22T14:31:27.162Z,66.20
2023-11-22T14:33:59.717Z,61.10
2023-11-22T14:36:30.097Z,67.07
2023-11-22T14:39:00.497Z,62.58
2023-11-22T14:44:02.279Z,66.00
2023-11-22T14:49:02.763Z,64.82
2023-11-22T14:59:04.921Z,73.57
2023-11-22T15:01:35.629Z,77.40
2023-11-22T15:04:05.970Z,71.38
2023-11-22T15:06:38.352Z,67.75
2023-11-22T15:09:12.864Z,61.13
2023-11-22T15:11:44.436Z,66.25
2023-11-22T15:14:14.813Z,68.60
2023-11-22T15:16:45.133Z,72.50
2023-11-22T15:19:15.371Z,60.80
2023-11-22T15:21:45.843Z,64.32
2023-11-22T15:26:46.938Z,65.63
2023-11-22T15:31:49.268Z,57.67
2023-11-22T15:34:19.819Z,61.60
2023-11-22T15:36:50.251Z,57.55
2023-11-22T15:41:52.440Z,55.88
2023-11-22T15:44:22.962Z,58.47
2023-11-22T15:46:53.498Z,58.33
2023-11-22T15:51:54.012Z,65.13
2023-11-22T15:54:27.450Z,56.67
2023-11-22T15:56:57.992Z,75.90
2023-11-22T15:59:28.559Z,57.85
2023-11-22T16:04:28.845Z,56.65
2023-11-22T16:06:59.156Z,57.50
2023-11-22T16:09:30.486Z,57.28
2023-11-22T16:12:00.944Z,62.17
2023-11-22T16:17:02.722Z,59.22
2023-11-22T16:19:33.371Z,55.22
2023-11-22T16:22:03.785Z,54.00
2023-11-22T16:24:34.015Z,55.38
2023-11-22T16:27:05.420Z,58.60
2023-11-22T16:29:36.306Z,55.35
2023-11-22T16:32:06.874Z,58.30
2023-11-22T16:39:38.618Z,56.92
2023-11-22T16:42:09.646Z,54.38
2023-11-22T16:44:45.321Z,59.28
2023-11-22T16:47:17.309Z,59.25
2023-11-22T16:49:49.529Z,62.58
2023-11-22T16:52:20.214Z,56.70
2023-11-22T16:54:50.560Z,60.35
2023-11-22T16:57:21.689Z,55.53
2023-11-22T16:59:52.212Z,48.85
2023-11-22T17:04:52.848Z,54.80
2023-11-22T17:07:23.139Z,53.80
2023-11-22T17:09:53.735Z,52.65
2023-11-22T17:12:24.064Z,49.63
2023-11-22T17:14:54.609Z,55.30
2023-11-22T17:17:25.421Z,51.15
2023-11-22T17:19:56.385Z,52.13
2023-11-22T17:22:30.469Z,51.22
2023-11-22T17:25:02.212Z,61.65
2023-11-22T17:27:46.015Z,51.75
2023-11-22T17:32:53.329Z,50.05
2023-11-22T17:35:24.370Z,54.38
2023-11-22T17:38:01.223Z,51.70
2023-11-22T17:40:34.647Z,51.63
2023-11-22T17:43:05.248Z,49.30
2023-11-22T17:45:37.032Z,50.85
2023-11-22T17:48:07.794Z,53.40
2023-11-22T17:50:38.125Z,50.67
2023-11-22T17:53:08.584Z,53.50
2023-11-22T17:58:08.607Z,58.30
2023-11-22T18:00:39.035Z,51.22
2023-11-22T18:03:09.663Z,50.65
2023-11-22T18:05:40.112Z,46.55
2023-11-22T18:08:10.494Z,51.33
2023-11-22T18:10:46.420Z,55.42
2023-11-22T18:13:18.099Z,60.35
2023-11-22T18:15:48.466Z,58.45
2023-11-22T18:18:18.853Z,57.90
2023-11-22T18:20:49.477Z,59.47
2023-11-22T18:23:21.981Z,56.22
2023-11-22T18:25:52.379Z,55.97
2023-11-22T18:28:23.696Z,55.58
2023-11-22T18:30:54.160Z,52.80
2023-11-22T18:35:54.263Z,51.35
2023-11-22T18:38:26.198Z,60.05
2023-11-22T18:40:56.766Z,58.78
2023-11-22T18:45:57.285Z,63.20
2023-11-22T18:50:57.791Z,52.67
2023-11-22T18:53:28.582Z,46.28
2023-11-22T18:55:58.964Z,59.60
2023-11-22T18:58:29.158Z,61.22
2023-11-22T19:00:59.841Z,53.65
2023-11-22T19:03:30.339Z,56.45
2023-11-22T19:08:30.559Z,59.90
2023-11-22T19:11:00.789Z,64.00
2023-11-22T19:13:32.659Z,58.88
2023-11-22T19:16:04.114Z,49.50
2023-11-22T19:18:34.595Z,57.33
2023-11-22T19:23:37.605Z,59.65
2023-11-22T19:26:07.932Z,56.58
2023-11-22T19:28:39.075Z,51.55
2023-11-22T19:31:12.915Z,52.30
2023-11-22T19:33:43.268Z,55.72
2023-11-22T19:36:22.290Z,67.95
2023-11-22T19:38:59.872Z,47.78
2023-11-22T19:41:30.632Z,53.00
2023-11-22T19:44:01.303Z,57.00
2023-11-22T19:46:31.455Z,56.13
2023-11-22T19:49:02.510Z,54.40
2023-11-22T19:51:33.326Z,47.70
2023-11-22T19:54:03.829Z,48.90
2023-11-22T19:59:04.144Z,60.67
2023-11-22T20:04:04.429Z,61.17
2023-11-22T20:06:34.715Z,61.95
2023-11-22T20:09:06.459Z,60.25
2023-11-22T20:11:37.464Z,58.00
2023-11-22T20:14:08.161Z,59.97
2023-11-22T20:16:38.613Z,55.78
2023-11-22T20:19:08.859Z,57.42
2023-11-22T20:21:48.498Z,64.90
2023-11-22T20:24:18.946Z,52.00
2023-11-22T20:29:19.064Z,60.30
2023-11-22T20:31:51.303Z,53.15
2023-11-22T20:34:21.712Z,53.85
2023-11-22T20:36:53.160Z,63.47
2023-11-22T20:39:23.418Z,62.20
2023-11-22T20:41:54.728Z,52.50
2023-11-22T20:44:24.940Z,53.95
2023-11-22T20:46:55.554Z,54.70
2023-11-22T20:49:28.418Z,56.15
2023-11-22T20:51:58.633Z,65.43
2023-11-22T20:54:29.191Z,50.72
2023-11-22T20:59:32.809Z,48.58
2023-11-22T21:02:03.210Z,50.92
2023-11-22T21:04:33.516Z,54.97
2023-11-22T21:07:03.767Z,52.00
2023-11-22T21:09:34.200Z,57.40
2023-11-22T21:12:04.863Z,63.85
2023-11-22T21:14:36.543Z,60.45
2023-11-22T21:17:09.285Z,55.83
2023-11-22T21:19:39.695Z,63.30
2023-11-22T21:22:10.249Z,56.17
2023-11-22T21:27:12.303Z,50.42
2023-11-22T21:29:42.626Z,52.10
2023-11-22T21:32:12.913Z,55.03
2023-11-22T21:34:44.120Z,49.80
2023-11-22T21:37:14.317Z,55.38
2023-11-22T21:39:44.698Z,51.58
2023-11-22T21:42:18.247Z,64.97
2023-11-22T21:44:48.564Z,58.92
2023-11-22T21:47:18.982Z,55.55
2023-11-22T21:49:50.435Z,54.55
2023-11-22T21:52:21.200Z,61.50
2023-11-22T21:54:51.602Z,49.10
2023-11-22T21:57:22.060Z,61.95
2023-11-22T21:59:52.388Z,55.40
2023-11-22T22:02:23.893Z,51.30
2023-11-22T22:04:54.174Z,60.95
2023-11-22T22:07:24.485Z,49.60
2023-11-22T22:09:57.512Z,62.00
2023-11-22T22:12:27.981Z,57.10
2023-11-22T22:14:58.234Z,55.33
2023-11-22T22:17:28.811Z,51.47
2023-11-22T22:22:30.705Z,61.58
2023-11-22T22:25:00.861Z,57.20
2023-11-22T22:27:31.222Z,66.78
2023-11-22T22:30:01.561Z,70.03
2023-11-22T22:32:32.054Z,63.33
2023-11-22T22:35:02.351Z,69.55
2023-11-22T22:37:32.569Z,65.32
2023-11-22T22:40:02.880Z,64.97
2023-11-22T22:42:33.157Z,66.57
2023-11-22T22:45:04.304Z,64.43
2023-11-22T22:47:34.598Z,54.13
2023-11-22T22:52:35.081Z,55.83
2023-11-22T22:55:06.322Z,61.33
2023-11-22T22:57:36.820Z,52.15
2023-11-22T23:00:12.714Z,54.92
2023-11-22T23:02:43.266Z,58.50
2023-11-22T23:07:56.530Z,54.80
2023-11-22T23:10:27.292Z,65.28
2023-11-22T23:12:57.597Z,54.20
2023-11-22T23:15:28.541Z,55.28
2023-11-22T23:17:58.987Z,56.90
2023-11-22T23:23:07.489Z,62.17
2023-11-22T23:25:37.882Z,62.33
2023-11-22T23:28:08.210Z,58.00
2023-11-22T23:30:38.547Z,54.08
2023-11-22T23:33:10.055Z,62.85
2023-11-22T23:35:40.474Z,53.72
2023-11-22T23:38:10.708Z,58.90
2023-11-22T23:40:41.113Z,62.83
2023-11-22T23:43:12.763Z,58.78
2023-11-22T23:45:43.093Z,67.10
2023-11-22T23:48:16.190Z,74.25
2023-11-22T23:50:46.529Z,64.10
2023-11-22T23:53:16.792Z,58.17
2023-11-22T23:55:47.460Z,65.63
2023-11-22T23:58:18.149Z,64.80
